createdAt,value
2023-06-11T00:00:06.517Z,99533.81
2023-06-11T00:03:43.000Z,99536.75
2023-06-11T00:07:04.995Z,99539.22
2023-06-11T00:13:13.595Z,99540.00
2023-06-11T00:16:06.066Z,99542.16
2023-06-11T00:19:12.222Z,99536.63
2023-06-11T00:21:54.953Z,99542.97
2023-06-11T00:24:57.096Z,99546.75
2023-06-11T00:27:47.704Z,99541.25
2023-06-11T00:30:47.602Z,99541.25
2023-06-11T00:33:30.621Z,99540.22
2023-06-11T00:36:25.693Z,99540.22
2023-06-11T00:39:32.683Z,99548.16
2023-06-11T00:42:28.456Z,99539.13
2023-06-11T00:45:27.377Z,99541.88
2023-06-11T00:48:45.939Z,99553.22
2023-06-11T00:51:31.641Z,99554.03
2023-06-11T00:54:30.507Z,99549.94
2023-06-11T00:56:57.399Z,99553.25
2023-06-11T00:59:24.392Z,99557.13
2023-06-11T01:02:04.648Z,99552.44
2023-06-11T01:04:35.475Z,99554.91
2023-06-11T01:07:08.018Z,99556.25
2023-06-11T01:09:38.778Z,99555.97
2023-06-11T01:12:07.064Z,99559.50
2023-06-11T01:14:34.019Z,99557.97
2023-06-11T01:17:07.351Z,99562.41
2023-06-11T01:20:06.597Z,99554.75
2023-06-11T01:23:05.230Z,99553.13
2023-06-11T01:25:47.976Z,99557.34
2023-06-11T01:28:22.295Z,99558.41
2023-06-11T01:30:52.981Z,99556.22
2023-06-11T01:33:21.153Z,99564.72
2023-06-11T01:35:52.534Z,99563.63
2023-06-11T01:38:19.709Z,99564.16
2023-06-11T01:40:49.912Z,99559.78
2023-06-11T01:43:18.787Z,99550.16
2023-06-11T01:45:46.055Z,99555.16
2023-06-11T01:48:13.224Z,99559.81
2023-06-11T01:50:41.512Z,99554.66
2023-06-11T01:53:08.473Z,99561.88
2023-06-11T01:55:35.548Z,99561.84
2023-06-11T01:58:02.470Z,99557.00
2023-06-11T02:05:50.339Z,99562.28
2023-06-11T02:08:23.783Z,99561.50
2023-06-11T02:10:51.308Z,99561.50
2023-06-11T02:13:18.298Z,99557.63
2023-06-11T02:16:38.404Z,99558.47
2023-06-11T02:19:06.504Z,99562.00
2023-06-11T02:21:36.123Z,99562.28
2023-06-11T02:24:03.437Z,99563.41
2023-06-11T02:26:30.939Z,99563.97
2023-06-11T02:28:57.941Z,99570.28
2023-06-11T02:31:24.906Z,99568.66
2023-06-11T02:33:51.867Z,99566.75
2023-06-11T02:36:19.254Z,99571.41
2023-06-11T02:38:47.452Z,99565.09
2023-06-11T02:41:14.717Z,99569.22
2023-06-11T02:43:41.523Z,99575.84
2023-06-11T02:46:08.787Z,99575.56
2023-06-11T02:48:36.457Z,99581.56
2023-06-11T02:51:03.330Z,99590.34
2023-06-11T02:53:30.287Z,99583.22
2023-06-11T02:55:58.541Z,99593.94
2023-06-11T02:58:25.476Z,99593.41
2023-06-11T03:00:52.551Z,99588.19
2023-06-11T03:03:19.477Z,99596.16
2023-06-11T03:05:48.992Z,99599.19
2023-06-11T03:08:17.962Z,99607.97
2023-06-11T03:10:49.951Z,99610.19
2023-06-11T03:13:21.528Z,99599.50
2023-06-11T03:15:52.395Z,99607.16
2023-06-11T03:18:23.735Z,99607.97
2023-06-11T03:20:55.095Z,99610.19
2023-06-11T03:23:22.236Z,99608.00
2023-06-11T03:25:49.614Z,99606.91
2023-06-11T03:28:17.582Z,99603.63
2023-06-11T03:30:45.992Z,99608.81
2023-06-11T03:33:12.941Z,99606.09
2023-06-11T03:35:41.785Z,99608.31
2023-06-11T03:38:17.920Z,99611.28
2023-06-11T03:40:45.505Z,99612.69
2023-06-11T03:43:13.078Z,99614.59
2023-06-11T03:45:41.789Z,99611.03
2023-06-11T03:48:10.254Z,99613.75
2023-06-11T03:50:37.693Z,99614.28
2023-06-11T03:53:04.802Z,99609.59
2023-06-11T03:55:31.855Z,99614.72
2023-06-11T03:57:58.806Z,99611.84
2023-06-11T04:04:57.783Z,99615.78
2023-06-11T04:07:25.279Z,99623.25
2023-06-11T04:09:52.789Z,99619.19
2023-06-11T04:12:19.956Z,99615.91
2023-06-11T04:14:47.327Z,99622.31
2023-06-11T04:17:15.145Z,99613.31
2023-06-11T04:19:42.089Z,99623.25
2023-06-11T04:22:10.334Z,99627.28
2023-06-11T04:24:37.297Z,99625.78
2023-06-11T04:27:05.045Z,99630.03
2023-06-11T04:29:32.883Z,99637.06
2023-06-11T04:32:01.437Z,99634.00
2023-06-11T04:34:28.598Z,99632.50
2023-06-11T04:36:55.701Z,99635.94
2023-06-11T04:39:24.754Z,99629.72
2023-06-11T04:41:52.203Z,99631.06
2023-06-11T04:44:20.686Z,99629.63
2023-06-11T04:46:49.268Z,99636.31
2023-06-11T04:49:17.334Z,99636.84
2023-06-11T04:51:44.357Z,99635.09
2023-06-11T04:54:12.391Z,99645.75
2023-06-11T04:56:45.666Z,99642.28
2023-06-11T04:59:12.953Z,99648.72
2023-06-11T05:01:40.728Z,99644.13
2023-06-11T05:04:07.621Z,99643.91
2023-06-11T05:06:35.116Z,99646.72
2023-06-11T05:09:04.940Z,99634.78
2023-06-11T05:11:32.464Z,99649.63
2023-06-11T05:14:00.707Z,99646.09
2023-06-11T05:16:27.775Z,99642.06
2023-06-11T05:18:55.917Z,99650.53
2023-06-11T05:21:22.845Z,99644.19
2023-06-11T05:23:50.308Z,99651.22
2023-06-11T05:26:17.404Z,99646.88
2023-06-11T05:28:47.075Z,99648.53
2023-06-11T05:31:15.475Z,99645.41
2023-06-11T05:33:46.642Z,99645.31
2023-06-11T05:36:14.508Z,99654.69
2023-06-11T05:38:42.278Z,99653.25
2023-06-11T05:41:09.482Z,99658.63
2023-06-11T05:43:36.551Z,99651.59
2023-06-11T05:46:03.963Z,99641.50
2023-06-11T05:48:33.231Z,99651.44
2023-06-11T05:51:00.517Z,99645.09
2023-06-11T05:53:27.603Z,99641.75
2023-06-11T05:55:55.804Z,99650.69
2023-06-11T05:58:24.021Z,99648.91
2023-06-11T06:00:51.376Z,99659.94
2023-06-11T06:03:18.999Z,99660.78
2023-06-11T06:05:47.570Z,99660.03
2023-06-11T06:08:14.900Z,99662.47
2023-06-11T06:10:43.407Z,99670.91
2023-06-11T06:13:11.876Z,99666.00
2023-06-11T06:15:39.454Z,99662.72
2023-06-11T06:18:06.941Z,99669.38
2023-06-11T06:20:41.962Z,99664.44
2023-06-11T06:23:10.552Z,99660.34
2023-06-11T06:25:39.386Z,99668.84
2023-06-11T06:28:10.280Z,99671.34
2023-06-11T06:30:39.031Z,99667.44
2023-06-11T06:33:07.165Z,99665.03
2023-06-11T06:35:34.765Z,99672.81
2023-06-11T06:38:03.433Z,99676.34
2023-06-11T06:40:32.886Z,99673.41
2023-06-11T06:43:00.349Z,99671.22
2023-06-11T06:45:31.435Z,99672.41
2023-06-11T06:48:01.328Z,99676.75
2023-06-11T06:50:29.309Z,99674.78
2023-06-11T06:52:56.394Z,99670.09
2023-06-11T06:55:23.451Z,99668.81
2023-06-11T06:57:54.763Z,99665.44
2023-06-11T07:00:21.917Z,99678.69
2023-06-11T07:02:49.016Z,99669.97
2023-06-11T07:05:17.343Z,99666.72
2023-06-11T07:07:44.266Z,99671.00
2023-06-11T07:10:12.851Z,99669.97
2023-06-11T07:12:40.662Z,99663.75
2023-06-11T07:15:10.680Z,99667.19
2023-06-11T07:17:38.113Z,99665.50
2023-06-11T07:20:08.067Z,99673.72
2023-06-11T07:22:35.037Z,99681.75
2023-06-11T07:25:01.976Z,99675.75
2023-06-11T07:27:29.955Z,99680.16
2023-06-11T07:29:57.187Z,99679.25
2023-06-11T07:32:25.722Z,99673.19
2023-06-11T07:34:53.287Z,99673.25
2023-06-11T07:37:20.381Z,99685.31
2023-06-11T07:39:48.433Z,99669.97
2023-06-11T07:42:17.982Z,99679.19
2023-06-11T07:44:45.961Z,99683.25
2023-06-11T07:47:14.076Z,99690.94
2023-06-11T07:49:42.850Z,99685.88
2023-06-11T07:52:09.874Z,99691.91
2023-06-11T07:54:40.041Z,99688.56
2023-06-11T07:57:09.848Z,99695.22
2023-06-11T07:59:37.699Z,99680.75
2023-06-11T08:02:05.571Z,99683.88
2023-06-11T08:04:32.484Z,99687.00
2023-06-11T08:07:00.795Z,99691.13
2023-06-11T08:09:30.906Z,99682.06
2023-06-11T08:11:58.824Z,99681.47
2023-06-11T08:14:25.938Z,99681.53
2023-06-11T08:16:55.088Z,99678.31
2023-06-11T08:19:22.596Z,99675.34
2023-06-11T08:21:49.587Z,99680.75
2023-06-11T08:24:18.630Z,99678.31
2023-06-11T08:26:45.962Z,99675.22
2023-06-11T08:29:12.932Z,99676.75
2023-06-11T08:31:40.224Z,99677.47
2023-06-11T08:34:07.265Z,99672.81
2023-06-11T08:36:34.136Z,99670.59
2023-06-11T08:39:01.292Z,99678.31
2023-06-11T08:41:31.461Z,99681.41
2023-06-11T08:43:59.709Z,99665.97
2023-06-11T08:46:27.088Z,99662.78
2023-06-11T08:49:01.293Z,99671.59
2023-06-11T08:51:37.180Z,99668.19
2023-06-11T08:54:07.150Z,99660.22
2023-06-11T08:56:36.227Z,99658.34
2023-06-11T08:59:04.511Z,99680.13
2023-06-11T09:01:31.927Z,99657.16
2023-06-11T09:03:59.031Z,99666.22
2023-06-11T09:06:27.282Z,99660.00
2023-06-11T09:09:02.715Z,99653.19
2023-06-11T09:11:36.804Z,99665.72
2023-06-11T09:14:07.142Z,99672.75
2023-06-11T09:16:40.609Z,99656.31
2023-06-11T09:19:11.897Z,99651.91
2023-06-11T09:21:38.953Z,99646.41
2023-06-11T09:24:10.038Z,99652.28
2023-06-11T09:26:38.678Z,99637.50
2023-06-11T09:29:06.205Z,99652.00
2023-06-11T09:31:33.209Z,99651.69
2023-06-11T09:34:02.489Z,99651.59
2023-06-11T09:36:31.205Z,99646.25
2023-06-11T09:38:59.247Z,99648.53
2023-06-11T09:41:27.203Z,99631.66
2023-06-11T09:43:55.832Z,99643.88
2023-06-11T09:46:26.978Z,99625.56
2023-06-11T09:48:56.467Z,99659.38
2023-06-11T09:51:24.135Z,99644.81
2023-06-11T09:53:52.705Z,99642.06
2023-06-11T09:56:21.181Z,99641.41
2023-06-11T09:58:48.966Z,99657.31
2023-06-11T10:01:20.055Z,99641.97
2023-06-11T10:03:47.489Z,99631.22
2023-06-11T10:06:25.054Z,99637.47
2023-06-11T10:08:56.874Z,99633.75
2023-06-11T10:11:25.709Z,99639.28
2023-06-11T10:14:01.923Z,99641.09
2023-06-11T10:16:49.232Z,99626.72
2023-06-11T10:19:17.731Z,99641.63
2023-06-11T10:21:58.037Z,99625.50
2023-06-11T10:24:27.246Z,99624.66
2023-06-11T10:27:08.494Z,99625.66
2023-06-11T10:29:48.578Z,99626.28
2023-06-11T10:32:18.895Z,99621.75
2023-06-11T10:34:49.432Z,99605.56
2023-06-11T10:37:27.509Z,99627.09
2023-06-11T10:39:54.649Z,99629.41
2023-06-11T10:42:27.380Z,99624.50
2023-06-11T10:44:58.224Z,99635.09
2023-06-11T10:47:29.334Z,99625.00
2023-06-11T10:50:07.993Z,99622.56
2023-06-11T10:52:49.686Z,99621.91
2023-06-11T10:55:18.370Z,99616.19
2023-06-11T10:57:47.665Z,99627.78
2023-06-11T11:00:15.799Z,99602.13
2023-06-11T11:02:44.539Z,99626.00
2023-06-11T11:05:11.988Z,99617.31
2023-06-11T11:07:41.041Z,99616.66
2023-06-11T11:10:09.206Z,99617.00
2023-06-11T11:12:39.542Z,99609.81
2023-06-11T11:15:08.327Z,99600.31
2023-06-11T11:17:35.908Z,99606.50
2023-06-11T11:20:08.440Z,99614.03
2023-06-11T11:22:35.837Z,99609.13
2023-06-11T11:25:12.062Z,99607.22
2023-06-11T11:27:42.396Z,99603.44
2023-06-11T11:30:10.813Z,99616.00
2023-06-11T11:32:38.471Z,99605.06
2023-06-11T11:35:09.077Z,99604.31
2023-06-11T11:37:36.152Z,99586.59
2023-06-11T11:40:08.127Z,99588.88
2023-06-11T11:42:48.850Z,99594.47
2023-06-11T11:45:16.446Z,99587.31
2023-06-11T11:47:45.483Z,99587.97
2023-06-11T11:50:21.670Z,99576.22
2023-06-11T11:53:01.935Z,99582.22
2023-06-11T11:55:29.097Z,99583.66
2023-06-11T11:58:07.446Z,99584.56
2023-06-11T12:00:35.067Z,99581.81
2023-06-11T12:03:09.614Z,99570.78
2023-06-11T12:05:40.476Z,99577.44
2023-06-11T12:08:08.554Z,99570.78
2023-06-11T12:10:35.879Z,99573.66
2023-06-11T12:13:04.098Z,99567.28
2023-06-11T12:15:31.164Z,99572.47
2023-06-11T12:17:58.278Z,99561.16
2023-06-11T12:20:25.276Z,99558.75
2023-06-11T12:22:53.903Z,99555.81
2023-06-11T12:25:20.893Z,99561.66
2023-06-11T12:27:48.960Z,99553.94
2023-06-11T12:30:16.298Z,99560.59
2023-06-11T12:32:45.503Z,99558.75
2023-06-11T12:35:12.542Z,99547.34
2023-06-11T12:37:39.440Z,99540.53
2023-06-11T12:40:09.734Z,99540.47
2023-06-11T12:42:36.832Z,99540.03
2023-06-11T12:45:04.827Z,99543.63
2023-06-11T12:47:32.404Z,99535.91
2023-06-11T12:49:59.387Z,99541.97
2023-06-11T12:52:26.317Z,99527.09
2023-06-11T12:54:54.310Z,99529.25
2023-06-11T12:57:22.615Z,99536.63
2023-06-11T12:59:49.461Z,99535.13
2023-06-11T13:02:19.459Z,99522.25
2023-06-11T13:04:46.819Z,99550.34
2023-06-11T13:07:14.186Z,99539.25
2023-06-11T13:09:41.087Z,99525.34
2023-06-11T13:12:09.593Z,99522.88
2023-06-11T13:14:38.045Z,99527.66
2023-06-11T13:17:05.857Z,99525.97
2023-06-11T13:19:32.825Z,99518.91
2023-06-11T13:22:00.554Z,99522.03
2023-06-11T13:24:27.696Z,99515.47
2023-06-11T13:26:54.731Z,99516.75
2023-06-11T13:29:21.765Z,99512.97
2023-06-11T13:31:51.566Z,99518.09
2023-06-11T13:34:18.807Z,99513.81
2023-06-11T13:36:45.881Z,99500.19
2023-06-11T13:39:13.009Z,99512.97
2023-06-11T13:41:40.244Z,99500.50
2023-06-11T13:44:08.461Z,99500.59
2023-06-11T13:46:35.923Z,99497.47
2023-06-11T13:49:04.718Z,99496.09
2023-06-11T13:51:31.834Z,99501.09
2023-06-11T13:53:59.863Z,99502.66
2023-06-11T13:56:28.108Z,99495.38
2023-06-11T13:58:55.141Z,99491.75
2023-06-11T14:01:22.528Z,99496.38
2023-06-11T14:03:49.628Z,99505.59
2023-06-11T14:06:17.958Z,99497.13
2023-06-11T14:08:45.644Z,99496.31
2023-06-11T14:11:12.889Z,99485.06
2023-06-11T14:13:40.520Z,99480.97
2023-06-11T14:16:07.642Z,99483.31
2023-06-11T14:18:35.042Z,99485.50
2023-06-11T14:21:02.027Z,99476.31
2023-06-11T14:23:30.314Z,99477.19
2023-06-11T14:25:57.720Z,99478.38
2023-06-11T14:28:24.700Z,99467.34
2023-06-11T14:30:51.884Z,99473.25
2023-06-11T14:33:18.995Z,99466.00
2023-06-11T14:35:45.928Z,99458.84
2023-06-11T14:38:13.327Z,99461.19
2023-06-11T14:40:42.171Z,99463.38
2023-06-11T14:43:09.700Z,99458.84
2023-06-11T14:45:38.714Z,99457.97
2023-06-11T14:48:07.429Z,99456.84
2023-06-11T14:50:34.351Z,99460.97
2023-06-11T14:53:01.468Z,99460.50
2023-06-11T14:55:28.710Z,99449.81
2023-06-11T14:57:58.427Z,99452.84
2023-06-11T15:00:25.512Z,99441.59
2023-06-11T15:02:52.404Z,99444.84
2023-06-11T15:05:19.435Z,99444.50
2023-06-11T15:07:46.283Z,99438.22
2023-06-11T15:10:13.546Z,99446.03
2023-06-11T15:12:40.925Z,99433.50
2023-06-11T15:15:10.703Z,99437.47
2023-06-11T15:17:42.428Z,99442.28
2023-06-11T15:20:11.930Z,99429.22
2023-06-11T15:22:39.203Z,99439.63
2023-06-11T15:25:07.643Z,99435.97
2023-06-11T15:27:34.803Z,99431.84
2023-06-11T15:30:02.191Z,99425.94
2023-06-11T15:32:30.687Z,99431.03
2023-06-11T15:35:01.203Z,99429.06
2023-06-11T15:37:32.429Z,99422.28
2023-06-11T15:40:00.331Z,99425.91
2023-06-11T15:42:27.367Z,99419.97
2023-06-11T15:44:54.516Z,99411.94
2023-06-11T15:47:22.698Z,99427.63
2023-06-11T15:49:51.118Z,99426.41
2023-06-11T15:52:18.720Z,99425.06
2023-06-11T15:54:45.814Z,99416.94
2023-06-11T15:57:17.189Z,99418.44
2023-06-11T15:59:44.513Z,99420.44
2023-06-11T16:02:11.787Z,99410.88
2023-06-11T16:04:39.743Z,99423.38
2023-06-11T16:07:08.269Z,99415.09
2023-06-11T16:09:36.878Z,99420.84
2023-06-11T16:12:06.727Z,99411.19
2023-06-11T16:14:34.006Z,99413.69
2023-06-11T16:17:01.473Z,99425.09
2023-06-11T16:19:30.274Z,99419.06
2023-06-11T16:21:57.826Z,99423.22
2023-06-11T16:24:27.438Z,99420.06
2023-06-11T16:26:54.660Z,99413.41
2023-06-11T16:29:21.749Z,99433.75
2023-06-11T16:31:48.833Z,99430.31
2023-06-11T16:34:16.752Z,99427.53
2023-06-11T16:36:43.842Z,99431.28
2023-06-11T16:39:26.658Z,99431.47
2023-06-11T16:41:56.914Z,99426.59
2023-06-11T16:44:23.987Z,99418.53
2023-06-11T16:46:51.944Z,99419.88
2023-06-11T16:49:20.486Z,99428.94
2023-06-11T16:51:47.521Z,99425.63
2023-06-11T16:54:17.579Z,99425.31
2023-06-11T16:56:45.702Z,99426.44
2023-06-11T16:59:14.336Z,99424.63
2023-06-11T17:01:41.317Z,99417.44
2023-06-11T17:04:09.108Z,99422.84
2023-06-11T17:06:41.969Z,99423.22
2023-06-11T17:09:09.467Z,99414.88
2023-06-11T17:11:36.673Z,99418.69
2023-06-11T17:14:04.587Z,99411.25
2023-06-11T17:16:33.138Z,99407.31
2023-06-11T17:19:00.385Z,99413.22
2023-06-11T17:21:27.769Z,99417.38
2023-06-11T17:23:55.052Z,99419.22
2023-06-11T17:26:22.958Z,99414.66
2023-06-11T17:28:50.191Z,99411.69
2023-06-11T17:31:30.152Z,99401.59
2023-06-11T17:33:59.659Z,99405.84
2023-06-11T17:36:27.146Z,99405.50
2023-06-11T17:38:54.164Z,99412.25
2023-06-11T17:41:21.216Z,99415.22
2023-06-11T17:43:48.470Z,99411.78
2023-06-11T17:46:15.517Z,99410.13
2023-06-11T17:48:42.582Z,99401.13
2023-06-11T17:51:10.786Z,99409.78
2023-06-11T17:53:37.799Z,99405.44
2023-06-11T17:56:05.478Z,99401.22
2023-06-11T17:58:34.128Z,99412.47
2023-06-11T18:01:01.190Z,99404.00
2023-06-11T18:03:28.166Z,99410.88
2023-06-11T18:05:55.031Z,99411.03
2023-06-11T18:08:23.281Z,99406.81
2023-06-11T18:10:50.194Z,99408.59
2023-06-11T18:13:18.325Z,99407.63
2023-06-11T18:15:46.204Z,99404.88
2023-06-11T18:18:14.998Z,99414.50
2023-06-11T18:20:42.765Z,99423.47
2023-06-11T18:23:09.877Z,99420.03
2023-06-11T18:25:38.240Z,99419.06
2023-06-11T18:28:05.215Z,99425.13
2023-06-11T18:30:34.305Z,99422.19
2023-06-11T18:33:01.766Z,99422.19
2023-06-11T18:35:28.810Z,99413.56
2023-06-11T18:37:56.061Z,99414.53
2023-06-11T18:40:23.217Z,99420.72
2023-06-11T18:42:52.223Z,99410.63
2023-06-11T18:45:19.952Z,99415.34
2023-06-11T18:47:49.311Z,99416.00
2023-06-11T18:50:18.092Z,99419.06
2023-06-11T18:52:45.830Z,99425.25
2023-06-11T18:55:13.425Z,99427.03
2023-06-11T18:57:40.425Z,99431.09
2023-06-11T19:00:11.178Z,99433.72
2023-06-11T19:02:39.185Z,99432.22
2023-06-11T19:05:07.131Z,99435.78
2023-06-11T19:07:34.698Z,99430.88
2023-06-11T19:10:03.122Z,99434.44
2023-06-11T19:12:30.707Z,99439.63
2023-06-11T19:14:58.641Z,99442.56
2023-06-11T19:17:28.915Z,99434.19
2023-06-11T19:19:56.709Z,99441.63
2023-06-11T19:22:24.927Z,99440.97
2023-06-11T19:24:52.509Z,99442.75
2023-06-11T19:27:19.689Z,99450.53
2023-06-11T19:29:46.963Z,99455.84
2023-06-11T19:32:14.861Z,99466.06
2023-06-11T19:34:43.826Z,99465.06
2023-06-11T19:37:11.521Z,99465.34
2023-06-11T19:42:59.711Z,99483.38
2023-06-11T19:45:28.613Z,99480.41
2023-06-11T19:47:56.312Z,99477.84
2023-06-11T19:50:25.222Z,99484.47
2023-06-11T19:52:56.845Z,99488.88
2023-06-11T19:55:24.101Z,99492.19
2023-06-11T19:57:51.321Z,99485.84
2023-06-11T20:00:40.376Z,99490.38
2023-06-11T20:03:09.028Z,99490.16
2023-06-11T20:05:38.008Z,99492.91
2023-06-11T20:08:06.083Z,99492.13
2023-06-11T20:10:33.455Z,99494.75
2023-06-11T20:13:00.725Z,99498.25
2023-06-11T20:15:27.839Z,99500.00
2023-06-11T20:17:54.833Z,99504.13
2023-06-11T20:20:22.166Z,99510.50
2023-06-11T20:22:50.840Z,99504.94
2023-06-11T20:25:19.152Z,99505.16
2023-06-11T20:27:49.241Z,99504.00
2023-06-11T20:30:17.315Z,99509.44
2023-06-11T20:32:48.017Z,99522.00
2023-06-11T20:35:18.755Z,99511.75
2023-06-11T20:37:47.325Z,99517.94
2023-06-11T20:40:15.784Z,99510.28
2023-06-11T20:42:42.776Z,99514.38
2023-06-11T20:45:10.574Z,99515.81
2023-06-11T20:47:40.956Z,99519.69
2023-06-11T20:50:09.868Z,99521.84
2023-06-11T20:52:37.187Z,99525.19
2023-06-11T20:55:05.391Z,99519.84
2023-06-11T20:57:34.487Z,99526.66
2023-06-11T21:00:01.609Z,99514.34
2023-06-11T21:02:28.812Z,99511.44
2023-06-11T21:04:56.013Z,99513.66
2023-06-11T21:07:24.088Z,99508.69
2023-06-11T21:09:53.071Z,99510.31
2023-06-11T21:12:20.213Z,99504.00
2023-06-11T21:14:48.499Z,99510.63
2023-06-11T21:17:16.263Z,99514.66
2023-06-11T21:19:43.174Z,99512.13
2023-06-11T21:22:10.157Z,99505.88
2023-06-11T21:24:37.136Z,99517.50
2023-06-11T21:27:05.368Z,99510.59
2023-06-11T21:29:32.515Z,99513.00
2023-06-11T21:32:00.913Z,99509.00
2023-06-11T21:34:28.024Z,99511.28
2023-06-11T21:36:55.060Z,99508.91
2023-06-11T21:39:22.176Z,99507.22
2023-06-11T21:41:53.776Z,99505.94
2023-06-11T21:44:21.880Z,99509.91
2023-06-11T21:46:49.193Z,99509.03
2023-06-11T21:49:17.684Z,99506.00
2023-06-11T21:51:44.768Z,99506.53
2023-06-11T21:54:11.816Z,99507.34
2023-06-11T21:56:39.049Z,99510.63
2023-06-11T21:59:05.987Z,99503.25
2023-06-11T22:01:33.089Z,99514.50
2023-06-11T22:04:00.029Z,99507.44
2023-06-11T22:06:28.370Z,99512.16
2023-06-11T22:08:56.124Z,99515.13
2023-06-11T22:11:23.048Z,99516.25
2023-06-11T22:13:50.119Z,99515.13
2023-06-11T22:16:17.122Z,99520.69
2023-06-11T22:18:44.101Z,99518.81
2023-06-11T22:21:11.777Z,99515.00
2023-06-11T22:23:49.658Z,99519.16
2023-06-11T22:26:17.602Z,99521.13
2023-06-11T22:28:44.514Z,99518.66
2023-06-11T22:31:11.428Z,99519.22
2023-06-11T22:33:38.479Z,99519.28
2023-06-11T22:36:05.824Z,99524.31
2023-06-11T22:38:32.802Z,99518.34
2023-06-11T22:41:01.088Z,99523.31
2023-06-11T22:43:28.107Z,99517.06
2023-06-11T22:45:55.060Z,99528.16
2023-06-11T22:48:22.037Z,99524.94
2023-06-11T22:50:49.165Z,99516.97
2023-06-11T22:53:16.254Z,99516.13
2023-06-11T22:55:43.809Z,99530.41
2023-06-11T22:58:12.721Z,99520.28
2023-06-11T23:00:39.791Z,99525.22
2023-06-11T23:03:06.941Z,99527.22
2023-06-11T23:05:33.947Z,99518.47
2023-06-11T23:08:04.729Z,99516.56
2023-06-11T23:10:32.365Z,99519.81
2023-06-11T23:13:00.888Z,99517.06
2023-06-11T23:15:29.148Z,99519.34
2023-06-11T23:17:56.031Z,99514.41
2023-06-11T23:20:22.985Z,99522.91
2023-06-11T23:22:49.952Z,99516.38
2023-06-11T23:25:16.919Z,99520.47
2023-06-11T23:27:44.166Z,99518.28
2023-06-11T23:30:13.235Z,99522.06
2023-06-11T23:32:41.882Z,99513.81
2023-06-11T23:35:09.582Z,99515.19
2023-06-11T23:37:36.552Z,99521.22
2023-06-11T23:40:04.297Z,99520.41
2023-06-11T23:42:31.247Z,99513.28
2023-06-11T23:44:58.163Z,99507.22
2023-06-11T23:47:25.515Z,99511.94
2023-06-11T23:49:53.761Z,99507.78
2023-06-11T23:52:20.799Z,99501.25
2023-06-11T23:54:47.708Z,99499.31
2023-06-11T23:57:14.638Z,99496.31
2023-06-11T23:59:41.660Z,99494.91
